Time;durP1;ratioP1;P1;durP2;ratioP2;P2;SDS_P1;SDS_P2;PMS_P1;PMS_P2;Temp;Humidity;BMP_temperature;BMP_pressure;BME280_temperature;BME280_humidity;BME280_pressure;Samples;Min_cycle;Max_cycle;Signal;HPM_P1;HPM_P2
2022/08/31 00:04:56;;;;;;;2.15;0.60;;;;;;;16.12;71.40;101508.19;2079784;28;20041;-67
2022/08/31 00:06:03;;;;;;;1.40;0.80;;;;;;;16.15;71.79;101513.03;2088175;28;20063;-68
2022/08/31 00:07:04;;;;;;;4.10;0.60;;;;;;;16.11;71.64;101508.47;2087717;28;20638;-68
2022/08/31 00:08:07;;;;;;;1.25;0.70;;;;;;;16.09;71.66;101510.69;2087110;28;20045;-67
2022/08/31 00:09:14;;;;;;;1.63;0.60;;;;;;;16.11;71.83;101511.19;2071040;28;20070;-68
2022/08/31 00:10:20;;;;;;;1.55;0.70;;;;;;;16.08;71.89;101507.16;2070184;28;20046;-68
2022/08/31 00:11:29;;;;;;;4.00;0.73;;;;;;;16.06;71.92;101508.56;2095482;28;20048;-67
2022/08/31 00:12:34;;;;;;;2.28;0.80;;;;;;;15.99;72.06;101507.00;2078463;28;20044;-67
2022/08/31 00:13:36;;;;;;;2.33;0.90;;;;;;;15.95;72.33;101505.16;2079637;28;20547;-67
2022/08/31 00:14:43;;;;;;;1.42;0.85;;;;;;;15.91;72.38;101502.22;2079794;28;20041;-67
2022/08/31 00:15:51;;;;;;;1.80;0.70;;;;;;;15.88;72.43;101502.00;2072893;28;20049;-68
2022/08/31 00:16:52;;;;;;;2.63;0.85;;;;;;;15.85;72.60;101508.00;2079639;28;20507;-67
2022/08/31 00:17:58;;;;;;;2.83;0.70;;;;;;;15.84;72.46;101504.50;2071678;28;20045;-68
2022/08/31 00:19:00;;;;;;;2.78;0.85;;;;;;;15.80;72.57;101503.47;2064021;28;20137;-67
2022/08/31 00:20:08;;;;;;;2.83;0.68;;;;;;;15.76;72.54;101505.13;2072151;28;20081;-68
2022/08/31 00:21:11;;;;;;;1.27;0.60;;;;;;;15.73;72.81;101501.09;2070803;28;20053;-67
2022/08/31 00:22:13;;;;;;;2.42;0.82;;;;;;;15.69;72.67;101507.38;2063661;28;20054;-68
2022/08/31 00:23:20;;;;;;;2.13;0.70;;;;;;;15.68;72.58;101513.91;2069986;28;20034;-68
2022/08/31 00:24:25;;;;;;;1.58;0.60;;;;;;;15.65;72.82;101511.75;2063173;28;20104;-68
2022/08/31 00:25:34;;;;;;;0.85;0.70;;;;;;;15.64;73.23;101507.44;2075533;28;20032;-67
2022/08/31 00:26:36;;;;;;;1.48;0.60;;;;;;;15.67;73.03;101506.88;2079419;28;20044;-68
2022/08/31 00:27:44;;;;;;;1.50;0.75;;;;;;;15.65;73.14;101509.03;2079564;28;20488;-68
2022/08/31 00:28:46;;;;;;;3.20;0.85;;;;;;;15.61;73.17;101513.44;2089740;28;20048;-67
2022/08/31 00:29:51;;;;;;;3.75;0.80;;;;;;;15.63;73.42;101514.72;2081092;28;20038;-67
2022/08/31 00:31:01;;;;;;;2.33;0.90;;;;;;;15.65;73.51;101514.47;2065867;28;20049;-67
2022/08/31 00:32:07;;;;;;;4.13;0.75;;;;;;;15.64;73.30;101512.84;2072855;28;20053;-67
2022/08/31 00:33:12;;;;;;;1.77;0.75;;;;;;;15.62;73.51;101515.03;2073699;28;20038;-68
2022/08/31 00:34:16;;;;;;;2.42;0.88;;;;;;;15.59;73.60;101513.72;2072273;28;20665;-68
2022/08/31 00:35:25;;;;;;;4.28;0.70;;;;;;;15.56;73.41;101510.78;2074174;28;20045;-68
2022/08/31 00:36:27;;;;;;;3.10;0.80;;;;;;;15.57;73.73;101509.66;2080766;28;20037;-68
2022/08/31 00:37:36;;;;;;;1.48;0.75;;;;;;;15.58;73.78;101514.81;2071100;28;20048;-67
2022/08/31 00:38:43;;;;;;;2.65;0.70;;;;;;;15.55;74.02;101512.69;2072498;28;20037;-69
2022/08/31 00:39:45;;;;;;;1.25;0.80;;;;;;;15.52;73.38;101524.09;2074123;28;20053;-68
2022/08/31 00:40:47;;;;;;;2.63;0.82;;;;;;;15.48;73.75;101518.44;2071461;28;20045;-68
2022/08/31 00:41:55;;;;;;;2.20;0.70;;;;;;;15.47;73.35;101519.53;2073514;28;20042;-68
2022/08/31 00:43:00;;;;;;;2.10;0.77;;;;;;;15.46;73.43;101515.22;2088282;28;20048;-69
2022/08/31 00:44:10;;;;;;;1.08;0.60;;;;;;;15.45;73.83;101524.44;2087954;28;20057;-68
2022/08/31 00:45:13;;;;;;;1.25;0.80;;;;;;;15.46;73.75;101512.50;2081016;28;20041;-68
2022/08/31 00:46:29;;;;;;;2.63;0.65;;;;;;;15.46;73.62;101514.41;2080685;28;20442;-69
2022/08/31 00:47:36;;;;;;;1.27;0.60;;;;;;;15.48;73.33;101515.75;2075299;28;20038;-68
2022/08/31 00:48:47;;;;;;;;;;;;;;;15.47;73.53;101514.09;2092671;28;20087;-69
2022/08/31 00:49:57;;;;;;;1.80;0.60;;;;;;;15.46;73.43;101519.81;2087492;28;19919;-68
2022/08/31 00:51:05;;;;;;;1.20;0.57;;;;;;;15.43;73.58;101525.81;2074267;28;20065;-68
2022/08/31 00:52:10;;;;;;;4.00;1.02;;;;;;;15.42;73.23;101526.91;2080923;28;20053;-69
2022/08/31 00:53:11;;;;;;;1.25;0.70;;;;;;;15.40;73.07;101519.06;2072376;28;20038;-69
2022/08/31 00:54:19;;;;;;;1.45;0.70;;;;;;;15.34;73.76;101517.50;2064188;28;20038;-68
2022/08/31 00:55:28;;;;;;;2.05;0.75;;;;;;;15.36;73.68;101522.66;2063153;28;20050;-68
2022/08/31 00:56:36;;;;;;;3.47;0.60;;;;;;;15.32;73.79;101513.47;2072191;28;20049;-68
2022/08/31 00:57:40;;;;;;;3.10;0.65;;;;;;;15.30;74.10;101514.56;2070271;28;20030;-69
2022/08/31 00:58:47;;;;;;;4.00;0.80;;;;;;;15.32;73.87;101516.16;2057906;28;20054;-69
2022/08/31 00:59:54;;;;;;;2.85;1.70;;;;;;;15.28;73.93;101516.75;2065822;28;20046;-68
2022/08/31 01:01:00;;;;;;;0.93;0.60;;;;;;;15.28;74.36;101518.66;2080353;28;20045;-69
2022/08/31 01:02:05;;;;;;;2.17;0.70;;;;;;;15.26;74.26;101518.94;2080302;28;20049;-68
2022/08/31 01:03:13;;;;;;;3.65;0.50;;;;;;;15.27;74.24;101525.16;2080757;28;20049;-69
2022/08/31 01:04:20;;;;;;;1.42;0.60;;;;;;;15.27;74.63;101517.03;2078697;28;20056;-68
2022/08/31 01:05:25;;;;;;;3.08;0.70;;;;;;;15.24;74.54;101514.91;2080929;28;20052;-69
2022/08/31 01:06:33;;;;;;;1.73;0.70;;;;;;;15.24;74.54;101517.63;2079253;28;20037;-68
2022/08/31 01:07:42;;;;;;;1.63;0.70;;;;;;;15.24;74.64;101517.63;2072506;28;20048;-68
2022/08/31 01:08:50;;;;;;;2.80;0.80;;;;;;;15.22;74.20;101522.50;2068131;28;20052;-68
2022/08/31 01:09:57;;;;;;;3.10;0.77;;;;;;;15.23;74.37;101516.00;2064400;28;20042;-68
2022/08/31 01:11:04;;;;;;;2.38;0.70;;;;;;;15.20;74.71;101513.88;2062384;28;20050;-68
2022/08/31 01:12:10;;;;;;;2.10;0.80;;;;;;;15.19;74.71;101517.66;2072477;28;20041;-68
2022/08/31 01:13:18;;;;;;;2.75;1.00;;;;;;;15.16;74.70;101516.31;2072698;28;20042;-68
2022/08/31 01:14:24;;;;;;;2.65;0.90;;;;;;;15.13;75.08;101518.78;2064761;28;20405;-68
2022/08/31 01:15:28;;;;;;;1.60;0.80;;;;;;;15.16;75.10;101515.50;2065176;28;20074;-68
2022/08/31 01:16:55;;;;;;;2.78;0.77;;;;;;;15.17;74.93;101515.25;2072152;28;20050;-67
2022/08/31 01:18:04;;;;;;;4.10;0.98;;;;;;;15.10;74.86;101516.66;2072972;28;20044;-67
2022/08/31 01:19:13;;;;;;;1.92;0.80;;;;;;;15.10;75.02;101511.22;2080990;28;20045;-68
2022/08/31 01:20:22;;;;;;;3.33;1.10;;;;;;;15.07;74.97;101520.75;2079833;28;20041;-69
2022/08/31 01:21:40;;;;;;;1.70;0.80;;;;;;;14.99;75.22;101514.03;2064640;28;20434;-69
2022/08/31 01:23:14;;;;;;;2.28;0.60;;;;;;;15.00;75.19;101518.34;2066222;28;20089;-69
2022/08/31 01:24:19;;;;;;;2.15;0.80;;;;;;;14.98;75.23;101512.44;2058508;28;20047;-69
2022/08/31 01:25:25;;;;;;;4.05;0.75;;;;;;;14.97;75.27;101516.22;2063715;28;20068;-70
2022/08/31 01:26:31;;;;;;;4.15;0.68;;;;;;;14.95;75.41;101518.41;2071290;28;20425;-68
2022/08/31 01:27:36;;;;;;;1.65;0.80;;;;;;;14.92;75.46;101519.00;2080942;28;20033;-68
2022/08/31 01:28:38;;;;;;;1.90;0.50;;;;;;;14.91;75.62;101516.53;2066535;28;20373;-68
2022/08/31 01:29:41;;;;;;;1.85;0.63;;;;;;;14.93;75.44;101520.59;2063518;28;20489;-67
2022/08/31 01:30:57;;;;;;;2.20;0.80;;;;;;;14.94;75.55;101515.97;2071246;28;20053;-68
2022/08/31 01:32:00;;;;;;;1.80;0.77;;;;;;;14.93;75.54;101515.19;2080974;28;20045;-68
2022/08/31 01:33:02;;;;;;;2.15;0.77;;;;;;;14.93;76.00;101514.38;2071970;28;20053;-68
2022/08/31 01:34:08;;;;;;;3.53;0.60;;;;;;;14.92;75.75;101519.00;2064773;28;20038;-68
2022/08/31 01:35:13;;;;;;;1.80;0.68;;;;;;;14.93;75.71;101519.78;2064296;28;20050;-68
2022/08/31 01:36:18;;;;;;;2.42;0.50;;;;;;;14.89;75.96;101510.63;2071738;28;20096;-68
2022/08/31 01:37:24;;;;;;;2.85;0.68;;;;;;;14.86;75.64;101511.19;2079328;28;20041;-68
2022/08/31 01:38:29;;;;;;;1.42;0.70;;;;;;;14.86;75.70;101514.72;2073077;28;20049;-68
2022/08/31 01:39:34;;;;;;;1.42;0.98;;;;;;;14.83;75.90;101510.66;2071610;28;20493;-67
2022/08/31 01:40:45;;;;;;;0.82;0.52;;;;;;;14.81;76.11;101512.03;2063249;28;20042;-68
2022/08/31 01:41:50;;;;;;;3.20;1.20;;;;;;;14.82;76.09;101513.66;2064364;28;20038;-67
2022/08/31 01:42:58;;;;;;;2.78;0.50;;;;;;;14.82;76.06;101508.25;2057344;28;20051;-68
2022/08/31 01:44:08;;;;;;;1.70;0.60;;;;;;;14.84;76.03;101514.16;2064803;28;20046;-68
2022/08/31 01:45:14;;;;;;;1.83;0.60;;;;;;;14.84;75.63;101516.88;2064378;28;20524;-68
2022/08/31 01:46:17;;;;;;;2.45;0.70;;;;;;;14.84;75.83;101516.88;2064511;28;20049;-68
2022/08/31 01:47:19;;;;;;;3.38;0.57;;;;;;;14.89;75.88;101511.44;2056572;28;20051;-69
2022/08/31 01:48:24;;;;;;;2.45;0.52;;;;;;;14.91;75.61;101517.38;2057462;28;20073;-68
2022/08/31 01:49:30;;;;;;;2.75;0.90;;;;;;;14.88;75.74;101520.66;2064353;28;20486;-69
2022/08/31 01:50:37;;;;;;;1.77;0.70;;;;;;;14.92;75.94;101516.28;2068963;28;20053;-68
2022/08/31 01:51:41;;;;;;;2.55;0.68;;;;;;;14.93;75.79;101517.09;2056349;28;20050;-68
2022/08/31 01:52:45;;;;;;;4.72;0.80;;;;;;;14.93;75.64;101520.59;2062884;28;20045;-67
2022/08/31 01:53:54;;;;;;;2.70;0.60;;;;;;;14.99;75.83;101513.25;2069415;28;20038;-67
2022/08/31 01:54:58;;;;;;;3.90;0.70;;;;;;;15.04;75.48;101519.44;2063828;28;20417;-76
2022/08/31 01:56:04;;;;;;;1.67;0.60;;;;;;;15.10;75.20;101516.66;2054288;28;20054;-76
2022/08/31 01:57:09;;;;;;;2.90;0.73;;;;;;;15.11;75.28;101521.00;2065826;28;20076;-75
2022/08/31 01:58:39;;;;;;;1.85;0.65;;;;;;;15.15;75.09;101514.72;2058334;28;20051;-74
2022/08/31 02:00:09;;;;;;;1.65;0.57;;;;;;;15.19;75.39;101506.81;2062512;28;20153;-75
2022/08/31 02:01:27;;;;;;;6.47;0.68;;;;;;;15.23;75.17;101513.28;2049375;28;20051;-75
2022/08/31 02:02:30;;;;;;;;;;;;;;;15.23;74.70;101516.81;2050131;28;20046;-75
2022/08/31 02:03:33;;;;;;;1.50;0.57;;;;;;;15.20;74.43;101513.88;2048358;28;19961;-74
2022/08/31 02:04:36;;;;;;;3.20;0.60;;;;;;;15.18;74.76;101511.44;2056641;28;20050;-74
2022/08/31 02:05:43;;;;;;;1.98;0.60;;;;;;;15.19;74.43;101517.66;2062111;28;20409;-78
2022/08/31 02:06:50;;;;;;;1.95;0.80;;;;;;;15.17;74.46;101523.38;2049118;28;20506;-77
2022/08/31 02:08:00;;;;;;;4.57;0.85;;;;;;;15.16;74.50;101518.22;2057289;28;20066;-76
2022/08/31 02:09:08;;;;;;;3.97;0.85;;;;;;;15.16;74.30;101518.22;2063798;28;20398;-76
2022/08/31 02:10:16;;;;;;;3.25;0.60;;;;;;;15.14;74.29;101520.44;2065216;28;20046;-77
2022/08/31 02:11:24;;;;;;;1.73;0.80;;;;;;;15.10;74.69;101514.78;2068800;28;20053;-77
2022/08/31 02:12:26;;;;;;;3.55;0.70;;;;;;;15.14;74.48;101517.72;2056547;28;20046;-76
2022/08/31 02:13:31;;;;;;;3.72;0.77;;;;;;;15.16;74.68;101513.59;2064150;28;20030;-77
2022/08/31 02:14:34;;;;;;;1.23;0.63;;;;;;;15.18;74.76;101516.84;2064415;28;20047;-76
2022/08/31 02:15:39;;;;;;;1.05;0.60;;;;;;;15.18;74.53;101506.00;2064285;28;20042;-76
2022/08/31 02:16:48;;;;;;;0.77;0.50;;;;;;;15.21;74.76;101510.84;2055998;28;20065;-77
2022/08/31 02:17:54;;;;;;;2.67;0.80;;;;;;;15.23;74.63;101514.09;2057549;28;20391;-77
2022/08/31 02:19:01;;;;;;;1.90;0.70;;;;;;;15.27;74.64;101514.34;2064162;28;20038;-76
2022/08/31 02:20:10;;;;;;;4.70;0.95;;;;;;;15.31;74.33;101520.78;2063300;28;20038;-76
2022/08/31 02:21:14;;;;;;;4.55;0.60;;;;;;;15.34;74.64;101514.00;2057099;28;20054;-76
2022/08/31 02:22:19;;;;;;;1.67;0.55;;;;;;;15.33;74.67;101513.19;2064191;28;20038;-76
2022/08/31 02:23:21;;;;;;;1.80;0.77;;;;;;;15.35;74.14;101521.81;2059489;28;20034;-77
2022/08/31 02:24:25;;;;;;;1.58;0.70;;;;;;;15.37;74.09;101513.41;2055844;28;20038;-76
2022/08/31 02:25:35;;;;;;;1.45;0.60;;;;;;;15.38;74.15;101523.94;2055762;28;20536;-76
2022/08/31 02:26:39;;;;;;;4.32;0.80;;;;;;;15.38;74.15;101518.53;2069151;28;20374;-77
2022/08/31 02:27:46;;;;;;;0.85;0.50;;;;;;;15.39;74.23;101516.66;2071848;28;20038;-76
2022/08/31 02:28:53;;;;;;;;;;;;;;;15.41;74.20;101519.88;2057689;28;20054;-76
2022/08/31 02:29:57;;;;;;;0.80;0.60;;;;;;;15.42;74.19;101522.31;2080493;28;19913;-76
2022/08/31 02:30:59;;;;;;;3.60;0.80;;;;;;;15.43;73.97;101523.09;2063926;28;20049;-76
2022/08/31 02:32:06;;;;;;;2.72;0.77;;;;;;;15.42;73.91;101525.00;2048532;28;20046;-76
2022/08/31 02:33:08;;;;;;;1.15;0.80;;;;;;;15.43;74.02;101520.41;2072177;28;20041;-75
2022/08/31 02:34:16;;;;;;;0.70;0.40;;;;;;;15.45;73.82;101516.31;2072279;28;20497;-76
2022/08/31 02:35:20;;;;;;;1.33;0.80;;;;;;;15.47;74.18;101516.81;2056059;28;20062;-76
2022/08/31 02:36:22;;;;;;;2.90;0.80;;;;;;;15.48;73.95;101518.44;2057128;28;20046;-76
2022/08/31 02:37:28;;;;;;;2.33;0.80;;;;;;;15.50;73.87;101520.84;2063908;28;20038;-76
2022/08/31 02:38:33;;;;;;;2.20;0.57;;;;;;;15.48;73.78;101521.16;2063626;28;20567;-76
2022/08/31 02:39:40;;;;;;;1.23;0.50;;;;;;;15.48;73.87;101523.88;2063628;28;20057;-76
2022/08/31 02:40:45;;;;;;;1.88;0.70;;;;;;;15.49;73.79;101522.75;2056078;28;20046;-75
2022/08/31 02:41:49;;;;;;;1.40;0.60;;;;;;;15.50;73.77;101524.38;2054412;28;20030;-75
2022/08/31 02:42:54;;;;;;;2.00;0.52;;;;;;;15.49;73.71;101513.81;2064094;28;20453;-76
2022/08/31 02:43:59;;;;;;;2.95;0.68;;;;;;;15.47;74.04;101518.72;2056512;28;20050;-76
2022/08/31 02:45:05;;;;;;;1.23;0.55;;;;;;;15.48;73.84;101513.03;2056073;28;20046;-76
2022/08/31 02:46:15;;;;;;;3.03;0.55;;;;;;;15.51;73.98;101520.59;2048761;28;20051;-76
2022/08/31 02:47:26;;;;;;;0.68;0.40;;;;;;;15.52;73.91;101516.75;2050129;28;20047;-76
2022/08/31 02:48:41;;;;;;;1.70;0.75;;;;;;;15.53;73.67;101520.28;2061266;28;20042;-76
2022/08/31 02:49:54;;;;;;;2.15;0.63;;;;;;;15.52;73.92;101514.06;2063073;28;20050;-76
2022/08/31 02:51:04;;;;;;;1.60;0.50;;;;;;;15.51;74.15;101517.88;2078311;28;20049;-76
2022/08/31 02:52:08;;;;;;;2.42;0.40;;;;;;;15.50;73.85;101516.25;2072112;28;20092;-76
2022/08/31 02:53:13;;;;;;;1.70;0.40;;;;;;;15.50;74.25;101512.72;2064180;28;20046;-76
2022/08/31 02:54:24;;;;;;;2.63;0.52;;;;;;;15.49;74.16;101517.34;2063039;28;20589;-75
2022/08/31 02:55:31;;;;;;;1.92;0.70;;;;;;;15.49;74.06;101520.06;2068811;28;20038;-75
2022/08/31 02:56:37;;;;;;;1.30;0.55;;;;;;;15.49;74.07;101520.06;2088885;28;20047;-75
2022/08/31 02:57:44;;;;;;;1.10;0.70;;;;;;;15.49;74.39;101520.06;2087367;28;20040;-75
2022/08/31 02:58:53;;;;;;;1.80;0.57;;;;;;;15.50;74.37;101518.94;2071514;28;20416;-75
2022/08/31 03:00:01;;;;;;;1.90;0.60;;;;;;;15.51;74.37;101515.16;2073419;28;20033;-75
2022/08/31 03:01:04;;;;;;;2.97;0.77;;;;;;;15.50;74.06;101516.25;2087331;28;20045;-74
2022/08/31 03:02:10;;;;;;;2.75;0.60;;;;;;;15.51;74.40;101528.72;2079722;28;20050;-76
2022/08/31 03:03:20;;;;;;;1.98;0.80;;;;;;;15.52;74.52;101516.75;2080211;28;20044;-75
2022/08/31 03:04:22;;;;;;;0.70;0.60;;;;;;;15.52;74.29;101516.75;2071036;28;20038;-75
2022/08/31 03:05:24;;;;;;;2.25;0.60;;;;;;;15.50;74.54;101513.53;2063833;28;20057;-75
2022/08/31 03:06:28;;;;;;;3.28;0.70;;;;;;;15.50;74.43;101518.94;2063479;28;20049;-74
2022/08/31 03:07:32;;;;;;;3.92;1.08;;;;;;;15.48;74.52;101515.75;2048303;28;20039;-74
2022/08/31 03:08:35;;;;;;;1.00;0.55;;;;;;;15.46;74.67;101514.41;2064323;28;20038;-74
2022/08/31 03:09:40;;;;;;;0.65;0.45;;;;;;;15.46;74.93;101517.91;2062644;28;20065;-74
2022/08/31 03:10:46;;;;;;;2.30;0.60;;;;;;;15.45;75.17;101516.31;2073483;28;20041;-74
2022/08/31 03:11:54;;;;;;;3.08;0.60;;;;;;;15.47;74.90;101519.53;2089324;28;20048;-74
2022/08/31 03:12:56;;;;;;;1.23;0.50;;;;;;;15.48;74.98;101514.94;2080120;28;20060;-74
2022/08/31 03:14:04;;;;;;;3.38;0.50;;;;;;;15.51;74.95;101514.34;2087578;28;20059;-74
2022/08/31 03:15:09;;;;;;;2.35;0.65;;;;;;;15.50;75.05;101516.25;2086238;28;20068;-74
2022/08/31 03:16:17;;;;;;;0.80;0.50;;;;;;;15.51;75.23;101520.59;2088219;28;20032;-74
2022/08/31 03:17:24;;;;;;;1.55;0.52;;;;;;;15.55;74.96;101514.59;2085634;28;20053;-74
2022/08/31 03:18:26;;;;;;;5.72;0.70;;;;;;;15.53;75.21;101523.00;2080072;28;20041;-74
2022/08/31 03:19:28;;;;;;;2.15;0.95;;;;;;;15.53;75.33;101520.28;2087618;28;20045;-74
2022/08/31 03:20:32;;;;;;;2.42;0.85;;;;;;;15.53;75.29;101526.50;2079524;28;20070;-74
2022/08/31 03:21:34;;;;;;;1.50;0.45;;;;;;;15.56;75.30;101524.31;2080003;28;20452;-74
2022/08/31 03:22:36;;;;;;;2.95;0.63;;;;;;;15.57;75.34;101523.22;2071750;28;20057;-74
2022/08/31 03:23:46;;;;;;;1.27;0.80;;;;;;;15.56;75.13;101516.19;2072105;28;20046;-74
2022/08/31 03:24:50;;;;;;;2.45;0.80;;;;;;;15.51;75.31;101517.88;2078655;28;20045;-75
2022/08/31 03:25:56;;;;;;;3.28;0.80;;;;;;;15.46;75.49;101520.63;2064238;28;20109;-75
2022/08/31 03:26:58;;;;;;;3.05;0.65;;;;;;;15.43;75.61;101526.63;2077575;28;20048;-75
2022/08/31 03:28:02;;;;;;;2.28;0.80;;;;;;;15.41;75.88;101523.38;2087968;28;20059;-75
2022/08/31 03:29:11;;;;;;;2.88;0.75;;;;;;;15.34;75.88;101524.81;2063785;28;20045;-76
2022/08/31 03:30:39;;;;;;;1.77;0.70;;;;;;;15.33;76.46;101524.03;2069311;28;20050;-76
2022/08/31 03:31:46;;;;;;;5.78;0.70;;;;;;;15.33;76.34;101526.72;2079985;28;20473;-75
2022/08/31 03:32:49;;;;;;;4.43;0.82;;;;;;;15.28;76.64;101526.78;2071803;28;20042;-75
2022/08/31 03:33:51;;;;;;;3.83;0.80;;;;;;;15.27;76.64;101525.16;2072027;28;20042;-75
2022/08/31 03:34:59;;;;;;;1.02;0.63;;;;;;;15.28;76.83;101529.47;2062742;28;20530;-75
2022/08/31 03:36:04;;;;;;;1.83;0.68;;;;;;;15.26;76.33;101523.56;2065290;28;20091;-75
2022/08/31 03:37:08;;;;;;;3.90;0.90;;;;;;;15.27;76.94;101533.28;2078579;28;20048;-75
2022/08/31 03:38:32;;;;;;;2.53;0.70;;;;;;;15.25;76.98;101532.75;2071653;28;20065;-75
2022/08/31 03:39:35;;;;;;;4.53;0.70;;;;;;;15.24;77.13;101533.88;2072579;28;20049;-75
2022/08/31 03:40:37;;;;;;;2.65;0.50;;;;;;;15.25;77.06;101536.28;2076199;28;20037;-76
2022/08/31 03:41:39;;;;;;;1.83;0.90;;;;;;;15.26;77.01;101539.81;2069872;28;20046;-74
2022/08/31 03:42:45;;;;;;;3.40;0.85;;;;;;;15.27;77.31;101530.59;2072143;28;20651;-74
2022/08/31 03:43:48;;;;;;;1.23;0.57;;;;;;;15.27;77.01;101531.38;2071032;28;20397;-74
2022/08/31 03:44:56;;;;;;;1.98;0.70;;;;;;;15.29;77.54;101536.53;2072243;28;20057;-75
2022/08/31 03:46:07;;;;;;;7.93;0.98;;;;;;;15.33;77.32;101537.56;2070083;28;20045;-75
2022/08/31 03:47:12;;;;;;;2.85;0.70;;;;;;;15.34;77.42;101536.47;2063567;28;20049;-75
2022/08/31 03:48:17;;;;;;;1.67;0.70;;;;;;;15.37;77.29;101537.81;2063292;28;20050;-74
2022/08/31 03:49:22;;;;;;;4.80;0.60;;;;;;;15.36;77.11;101534.28;2064469;28;20425;-74
2022/08/31 03:50:45;;;;;;;1.48;0.98;;;;;;;15.35;77.22;101532.66;2055580;28;20042;-73
2022/08/31 03:52:01;;;;;;;2.30;0.60;;;;;;;15.35;77.03;101535.38;2064979;28;20061;-74
2022/08/31 03:53:06;;;;;;;4.35;0.73;;;;;;;15.31;77.15;101534.34;2064004;28;20764;-74
2022/08/31 03:54:12;;;;;;;2.10;0.60;;;;;;;15.31;77.08;101534.34;2055164;28;20036;-75
2022/08/31 03:55:21;;;;;;;2.28;0.70;;;;;;;15.30;77.43;101536.25;2057205;28;20070;-74
2022/08/31 03:56:24;;;;;;;3.75;0.82;;;;;;;15.33;77.28;101534.88;2055142;28;20039;-74
2022/08/31 03:57:29;;;;;;;2.17;0.70;;;;;;;15.32;77.06;101538.69;2045235;28;20455;-73
2022/08/31 03:58:39;;;;;;;2.45;0.70;;;;;;;15.31;77.02;101537.03;2056569;28;20046;-74
2022/08/31 03:59:42;;;;;;;2.25;0.80;;;;;;;15.28;77.05;101537.63;2055648;28;20034;-75
2022/08/31 04:00:55;;;;;;;2.35;0.75;;;;;;;15.24;76.88;101540.09;2065039;28;20042;-75
2022/08/31 04:02:41;;;;;;;1.45;0.70;;;;;;;15.19;77.40;101542.03;2059970;28;20045;-75
2022/08/31 04:04:02;;;;;;;2.67;0.68;;;;;;;15.18;77.36;101549.34;2057465;28;20047;-75
2022/08/31 04:05:44;;;;;;;3.58;0.60;;;;;;;15.23;77.44;101537.69;2063465;28;20038;-75
2022/08/31 04:06:51;;;;;;;0.95;0.50;;;;;;;15.25;77.22;101549.00;2073072;28;20056;-75
2022/08/31 04:08:24;;;;;;;1.65;0.50;;;;;;;15.31;77.49;101547.88;2076102;28;20057;-75
2022/08/31 04:09:55;;;;;;;1.27;0.70;;;;;;;15.33;77.13;101551.13;2044431;29;20496;-73
2022/08/31 04:11:19;;;;;;;3.85;0.68;;;;;;;15.35;77.43;101548.09;2061214;28;20047;-74
2022/08/31 04:13:04;;;;;;;6.28;0.57;;;;;;;15.36;77.09;101549.75;2073051;28;20077;-74
2022/08/31 04:14:31;;;;;;;2.28;0.70;;;;;;;15.36;77.03;101552.47;2064694;28;20046;-74
2022/08/31 04:15:54;;;;;;;1.92;0.50;;;;;;;15.38;77.05;101548.34;2062292;28;20501;-75
2022/08/31 04:17:15;;;;;;;2.80;0.90;;;;;;;15.41;77.03;101553.19;2056791;28;20046;-73
2022/08/31 04:18:24;;;;;;;0.93;0.60;;;;;;;15.44;76.81;101543.69;2058394;28;20430;-74
2022/08/31 04:19:31;;;;;;;2.63;0.75;;;;;;;15.48;77.00;101545.56;2064907;28;20042;-74
2022/08/31 04:20:43;;;;;;;2.47;0.60;;;;;;;15.50;76.85;101546.06;2057198;28;20047;-74
2022/08/31 04:21:46;;;;;;;0.55;0.50;;;;;;;15.50;76.73;101545.25;2058455;28;20039;-74
2022/08/31 04:22:53;;;;;;;2.33;0.50;;;;;;;15.50;76.68;101553.38;2064580;28;20038;-73
2022/08/31 04:24:04;;;;;;;1.27;0.60;;;;;;;15.49;76.64;101552.56;2057759;28;20050;-73
2022/08/31 04:25:10;;;;;;;2.78;0.73;;;;;;;15.49;76.93;101555.28;2065273;28;20031;-74
2022/08/31 04:26:32;;;;;;;2.30;0.75;;;;;;;15.52;76.80;101549.28;2072803;28;20053;-73
2022/08/31 04:27:39;;;;;;;3.33;0.90;;;;;;;15.53;76.79;101550.09;2062071;28;20058;-74
2022/08/31 04:28:44;;;;;;;1.02;0.68;;;;;;;15.55;76.37;101549.81;2072642;28;20041;-73
2022/08/31 04:29:48;;;;;;;2.90;0.80;;;;;;;15.57;76.37;101553.03;2064565;28;20046;-73
2022/08/31 04:30:51;;;;;;;2.20;0.55;;;;;;;15.58;76.40;101550.06;2057220;28;20043;-73
2022/08/31 04:31:55;;;;;;;2.10;0.77;;;;;;;15.59;76.62;101546.22;2056271;28;20039;-73
2022/08/31 04:33:00;;;;;;;1.45;0.73;;;;;;;15.61;76.40;101543.25;2064526;28;20034;-73
2022/08/31 04:34:05;;;;;;;4.93;0.70;;;;;;;15.62;76.59;101548.38;2064870;28;20398;-73
2022/08/31 04:35:08;;;;;;;3.05;0.70;;;;;;;15.64;76.58;101554.31;2064644;28;20046;-76
2022/08/31 04:36:16;;;;;;;2.55;0.80;;;;;;;15.67;76.44;101553.78;2064259;28;20061;-72
2022/08/31 04:37:20;;;;;;;1.98;0.70;;;;;;;15.68;76.49;101557.28;2057942;28;20449;-73
2022/08/31 04:38:25;;;;;;;3.90;0.80;;;;;;;15.68;76.33;101546.44;2056735;28;20421;-72
2022/08/31 04:39:32;;;;;;;2.10;0.77;;;;;;;15.73;76.29;101554.50;2072684;28;20053;-72
2022/08/31 04:40:37;;;;;;;0.85;0.65;;;;;;;15.73;76.44;101554.50;2071719;28;20042;-72
2022/08/31 04:41:40;;;;;;;4.28;0.80;;;;;;;15.73;75.91;101543.66;2048578;28;20038;-72
2022/08/31 04:42:50;;;;;;;3.40;0.90;;;;;;;15.74;75.96;101550.72;2055165;28;20045;-73
2022/08/31 04:44:01;;;;;;;2.58;0.80;;;;;;;15.75;75.95;101557.75;2064580;28;20051;-72
2022/08/31 04:45:07;;;;;;;1.30;0.80;;;;;;;15.75;75.65;101550.41;2064729;28;20042;-73
2022/08/31 04:46:10;;;;;;;2.67;0.77;;;;;;;15.77;75.60;101555.56;2072565;28;20049;-68
2022/08/31 04:47:16;;;;;;;1.65;0.70;;;;;;;15.78;75.66;101551.75;2072896;28;20049;-67
2022/08/31 04:48:19;;;;;;;1.85;0.70;;;;;;;15.75;75.71;101555.84;2057446;28;20039;-71
2022/08/31 04:49:24;;;;;;;1.20;0.70;;;;;;;15.69;75.56;101556.19;2064233;28;20042;-68
2022/08/31 04:50:26;;;;;;;2.13;0.90;;;;;;;15.68;75.92;101552.69;2086270;28;20052;-68
2022/08/31 04:51:43;;;;;;;3.42;0.98;;;;;;;15.81;75.76;101556.59;2085949;28;20041;-68
2022/08/31 04:52:50;;;;;;;3.85;0.80;;;;;;;15.99;75.34;101555.84;2071478;28;20141;-67
2022/08/31 04:53:54;;;;;;;2.67;0.70;;;;;;;16.22;74.66;101551.47;2061696;28;20433;-69
2022/08/31 04:55:03;;;;;;;5.78;0.90;;;;;;;16.41;74.23;101554.19;2064530;28;20042;-67
2022/08/31 04:56:13;;;;;;;1.85;0.70;;;;;;;16.63;73.77;101556.31;2079283;28;20046;-67
2022/08/31 04:57:17;;;;;;;2.28;0.90;;;;;;;16.54;73.67;101552.63;2071331;28;20041;-67
2022/08/31 04:58:22;;;;;;;1.10;0.70;;;;;;;16.71;72.90;101552.13;2087440;28;20600;-67
2022/08/31 04:59:26;;;;;;;2.20;0.70;;;;;;;16.90;72.51;101557.56;2086630;28;20044;-67
2022/08/31 05:01:06;;;;;;;3.65;0.80;;;;;;;17.11;71.38;101549.84;2057002;28;20046;-68
2022/08/31 05:02:37;;;;;;;2.00;0.90;;;;;;;17.29;70.40;101551.72;2072715;28;20045;-67
2022/08/31 05:03:52;;;;;;;1.30;0.73;;;;;;;17.47;69.94;101550.03;2076324;28;20040;-67
2022/08/31 05:05:00;;;;;;;3.20;0.63;;;;;;;17.66;69.40;101554.59;2061381;28;20060;-67
2022/08/31 05:06:10;;;;;;;1.35;0.65;;;;;;;17.78;68.82;101553.00;2064935;28;20049;-69
2022/08/31 05:07:17;;;;;;;4.93;0.80;;;;;;;17.73;68.46;101553.06;2070820;28;20042;-67
2022/08/31 05:08:23;;;;;;;1.58;0.65;;;;;;;17.70;68.56;101550.16;2071185;28;20034;-67
2022/08/31 05:09:29;;;;;;;4.75;0.95;;;;;;;17.60;68.73;101545.72;2054543;28;20794;-67
2022/08/31 05:10:36;;;;;;;0.70;0.52;;;;;;;17.40;69.09;101556.97;2063892;28;20046;-68
2022/08/31 05:11:40;;;;;;;5.30;0.88;;;;;;;17.24;69.33;101551.00;2078502;28;20416;-68
2022/08/31 05:12:43;;;;;;;4.43;0.90;;;;;;;17.17;69.53;101556.81;2068717;28;20366;-67
2022/08/31 05:13:48;;;;;;;5.80;1.13;;;;;;;17.08;69.43;101561.31;2055792;28;20050;-69
2022/08/31 05:14:58;;;;;;;3.40;0.85;;;;;;;17.01;69.57;101556.28;2071572;28;20033;-68
2022/08/31 05:16:04;;;;;;;3.30;1.10;;;;;;;17.09;69.30;101568.38;2055704;28;20043;-66
2022/08/31 05:17:06;;;;;;;2.78;1.05;;;;;;;17.51;68.25;101555.69;2064263;28;20389;-66
2022/08/31 05:18:11;;;;;;;2.85;1.17;;;;;;;18.00;67.61;101565.88;2071053;28;20060;-67
2022/08/31 05:19:19;;;;;;;;;;;;;;;18.53;66.47;101561.72;2063741;28;20038;-64
2022/08/31 05:20:26;;;;;;;1.45;0.88;;;;;;;18.94;65.14;101560.78;2071165;28;19918;-68